KMYR

Myrtle Beach International Airport

Myrtle Beach, South Carolina, USA
METAR KMYR 162156Z 25007KT 10SM CLR 14/08 A2998 RMK AO2 SLP152 T01440078
Observed Flight Rules
Dec-16 @ 21:56 UTC (23 minutes ago) Visual Flight Rules
Wind Visibility Clouds
250° at 7 knots 10 miles
  • Clear skies
Temperatures Readings
Current 14°C / 57°F
Dewpoint 8°C / 46°F
Humidity 67%
Altimeter 29.98" Hg
Pressure 1015.2 hPa
Elevation 8
METAR KMYR 162156Z 25007KT 10SM CLR 14/08 A2998 RMK AO2 SLP152 T01440078
Observed Flight Rules
Dec-16 @ 21:56 UTC
(23 minutes ago)
VFR
Wind Visibility
250° at 7 knots 10 miles
Clouds
  • Clear skies
Temperature Dewpoint
14°C / 57°F 8°C / 46°F
Humidity Altimeter Pressure
67% 29.98" Hg 1015.2 hPa